createdAt,value
2023-04-18T00:00:00.717Z,66.76
2023-04-18T00:01:00.687Z,66.44
2023-04-18T00:02:00.783Z,66.60
2023-04-18T00:03:03.337Z,66.39
2023-04-18T00:04:00.756Z,66.23
2023-04-18T00:05:00.719Z,65.97
2023-04-18T00:06:00.626Z,65.97
2023-04-18T00:07:00.644Z,66.23
2023-04-18T00:08:00.615Z,66.07
2023-04-18T00:09:00.643Z,65.92
2023-04-18T00:10:00.591Z,65.87
2023-04-18T00:11:00.573Z,65.66
2023-04-18T00:12:00.549Z,65.66
2023-04-18T00:13:00.557Z,65.20
2023-04-18T00:14:00.535Z,65.46
2023-04-18T00:15:00.532Z,65.00
2023-04-18T00:16:00.511Z,65.30
2023-04-18T00:17:00.543Z,65.51
2023-04-18T00:18:00.520Z,65.76
2023-04-18T00:19:00.470Z,65.92
2023-04-18T00:20:00.464Z,65.71
2023-04-18T00:21:00.448Z,66.02
2023-04-18T00:22:00.421Z,66.28
2023-04-18T00:23:00.414Z,66.60
2023-04-18T00:24:00.411Z,66.54
2023-04-18T00:25:00.405Z,66.65
2023-04-18T00:26:00.372Z,66.49
2023-04-18T00:27:00.392Z,66.23
2023-04-18T00:28:00.344Z,65.92
2023-04-18T00:29:00.332Z,65.61
2023-04-18T00:30:00.359Z,65.56
2023-04-18T00:31:00.386Z,65.51
2023-04-18T00:32:00.300Z,65.61
2023-04-18T00:33:00.421Z,66.44
2023-04-18T00:34:00.271Z,66.70
2023-04-18T00:35:00.281Z,66.92
2023-04-18T00:36:00.258Z,67.40
2023-04-18T00:37:00.244Z,67.51
2023-04-18T00:38:00.213Z,67.78
2023-04-18T00:39:00.241Z,68.22
2023-04-18T00:40:00.245Z,68.78
2023-04-18T00:41:00.201Z,69.06
2023-04-18T00:42:00.166Z,69.86
2023-04-18T00:43:00.149Z,70.10
2023-04-18T00:44:00.181Z,71.35
2023-04-18T00:45:00.200Z,72.08
2023-04-18T00:46:00.166Z,72.26
2023-04-18T00:47:00.153Z,72.64
2023-04-18T00:48:00.185Z,73.21
2023-04-18T00:49:00.129Z,73.02
2023-04-18T00:50:00.091Z,72.64
2023-04-18T00:51:00.086Z,72.39
2023-04-18T00:52:00.071Z,72.20
2023-04-18T00:53:00.034Z,72.02
2023-04-18T00:54:00.009Z,72.02
2023-04-18T00:55:00.026Z,71.96
2023-04-18T00:56:00.041Z,71.65
2023-04-18T00:56:59.992Z,71.47
2023-04-18T00:57:59.960Z,71.35
2023-04-18T00:58:59.958Z,71.47
2023-04-18T00:59:59.953Z,71.47
2023-04-18T01:00:59.939Z,71.53
2023-04-18T01:01:59.993Z,71.16
2023-04-18T01:03:57.931Z,67.61
2023-04-18T01:04:58.796Z,70.33
2023-04-18T01:05:58.780Z,71.10
2023-04-18T01:06:58.762Z,71.41
2023-04-18T01:07:58.784Z,72.39
2023-04-18T01:08:58.761Z,72.89
2023-04-18T01:09:58.728Z,73.40
2023-04-18T01:10:58.770Z,73.08
2023-04-18T01:11:58.703Z,72.83
2023-04-18T01:12:58.695Z,72.77
2023-04-18T01:13:58.680Z,72.51
2023-04-18T01:14:58.696Z,72.70
2023-04-18T01:15:58.727Z,72.51
2023-04-18T01:16:58.689Z,73.27
2023-04-18T01:17:58.669Z,73.92
2023-04-18T01:18:58.617Z,74.44
2023-04-18T01:19:58.596Z,75.24
2023-04-18T01:20:58.651Z,76.06
2023-04-18T01:21:58.580Z,77.53
2023-04-18T01:22:58.588Z,78.84
2023-04-18T01:23:58.554Z,79.66
2023-04-18T01:24:58.544Z,80.50
2023-04-18T01:25:58.532Z,81.20
2023-04-18T01:26:58.544Z,81.83
2023-04-18T01:27:58.515Z,81.91
2023-04-18T01:28:58.503Z,81.75
2023-04-18T01:29:58.472Z,81.36
2023-04-18T01:30:58.480Z,81.36
2023-04-18T01:31:58.496Z,81.60
2023-04-18T01:32:58.492Z,82.15
2023-04-18T01:33:58.426Z,82.47
2023-04-18T01:34:58.473Z,83.46
2023-04-18T01:35:58.410Z,83.62
2023-04-18T01:36:58.381Z,83.62
2023-04-18T01:37:58.392Z,83.62
2023-04-18T01:38:58.367Z,83.87
2023-04-18T01:39:58.352Z,83.87
2023-04-18T01:40:58.374Z,83.71
2023-04-18T01:41:58.326Z,83.54
2023-04-18T01:42:58.307Z,83.62
2023-04-18T01:43:58.294Z,83.54
2023-04-18T01:44:58.328Z,83.29
2023-04-18T01:45:58.285Z,82.96
2023-04-18T01:46:58.387Z,83.21
2023-04-18T01:47:58.306Z,83.79
2023-04-18T01:48:58.239Z,83.79
2023-04-18T01:49:58.224Z,84.46
2023-04-18T01:50:58.248Z,84.98
2023-04-18T01:51:58.217Z,85.15
2023-04-18T01:52:58.188Z,85.50
2023-04-18T01:53:58.180Z,85.15
2023-04-18T01:54:58.184Z,85.41
2023-04-18T01:55:58.147Z,84.72
2023-04-18T01:56:58.168Z,84.63
2023-04-18T01:57:58.133Z,84.63
2023-04-18T01:58:58.121Z,85.41
2023-04-18T01:59:58.087Z,85.15
2023-04-18T02:00:58.081Z,83.87
2023-04-18T02:01:58.159Z,84.13
2023-04-18T02:02:58.237Z,83.29
2023-04-18T02:03:58.142Z,83.71
2023-04-18T02:04:58.031Z,83.46
2023-04-18T02:05:58.017Z,82.96
2023-04-18T02:06:57.990Z,82.56
2023-04-18T02:07:58.014Z,81.91
2023-04-18T02:08:57.991Z,81.60
2023-04-18T02:09:57.985Z,81.60
2023-04-18T02:10:57.988Z,81.67
2023-04-18T02:11:57.926Z,81.28
2023-04-18T02:12:57.951Z,80.81
2023-04-18T02:13:57.970Z,80.73
2023-04-18T02:14:57.905Z,81.36
2023-04-18T02:15:57.942Z,80.42
2023-04-18T02:16:58.114Z,80.19
2023-04-18T02:17:57.878Z,79.81
2023-04-18T02:18:57.946Z,79.96
2023-04-18T02:19:57.869Z,80.35
2023-04-18T02:20:57.873Z,80.42
2023-04-18T02:21:57.839Z,80.04
2023-04-18T02:22:57.842Z,79.66
2023-04-18T02:23:57.800Z,79.51
2023-04-18T02:24:57.801Z,79.21
2023-04-18T02:25:57.772Z,79.21
2023-04-18T02:26:57.783Z,78.84
2023-04-18T02:27:57.760Z,78.32
2023-04-18T02:28:57.728Z,78.04
2023-04-18T02:29:57.717Z,77.53
2023-04-18T02:30:57.715Z,77.53
2023-04-18T02:31:57.735Z,77.18
2023-04-18T02:32:57.698Z,77.18
2023-04-18T02:33:57.674Z,77.25
2023-04-18T02:34:57.668Z,76.54
2023-04-18T02:35:57.716Z,75.99
2023-04-18T02:36:57.663Z,76.20
2023-04-18T02:37:57.620Z,75.78
2023-04-18T02:38:57.659Z,76.20
2023-04-18T02:39:57.594Z,75.78
2023-04-18T02:40:57.578Z,76.06
2023-04-18T02:41:57.562Z,75.58
2023-04-18T02:42:57.556Z,75.11
2023-04-18T02:43:57.524Z,75.11
2023-04-18T02:44:57.571Z,75.04
2023-04-18T02:45:57.539Z,75.38
2023-04-18T02:46:57.552Z,75.31
2023-04-18T02:47:57.539Z,75.24
2023-04-18T02:48:57.474Z,74.84
2023-04-18T02:49:57.491Z,75.24
2023-04-18T02:50:57.541Z,75.51
2023-04-18T02:51:57.434Z,74.97
2023-04-18T02:52:57.403Z,74.71
2023-04-18T02:53:57.403Z,74.57
2023-04-18T02:54:57.399Z,74.31
2023-04-18T02:55:57.399Z,73.92
2023-04-18T02:56:57.393Z,73.79
2023-04-18T02:57:57.399Z,73.53
2023-04-18T02:58:57.340Z,73.15
2023-04-18T02:59:57.365Z,72.89
2023-04-18T03:00:57.348Z,72.77
2023-04-18T03:01:57.420Z,72.64
2023-04-18T03:02:57.342Z,72.26
2023-04-18T03:03:57.263Z,72.08
2023-04-18T03:04:57.279Z,71.77
2023-04-18T03:05:57.261Z,71.53
2023-04-18T03:06:57.237Z,71.41
2023-04-18T03:07:57.228Z,71.10
2023-04-18T03:08:57.247Z,71.22
2023-04-18T03:09:57.244Z,70.80
2023-04-18T03:10:57.224Z,70.80
2023-04-18T03:11:57.186Z,70.39
2023-04-18T03:12:57.148Z,69.98
2023-04-18T03:13:57.162Z,69.75
2023-04-18T03:14:57.182Z,69.12
2023-04-18T03:15:57.207Z,69.00
2023-04-18T03:16:57.128Z,68.78
2023-04-18T03:17:57.186Z,68.27
2023-04-18T03:18:57.102Z,68.44
2023-04-18T03:19:57.073Z,68.33
2023-04-18T03:20:57.084Z,68.05
2023-04-18T03:21:57.055Z,67.83
2023-04-18T03:22:57.064Z,67.78
2023-04-18T03:23:57.015Z,67.89
2023-04-18T03:24:57.008Z,67.78
2023-04-18T03:25:57.004Z,67.67
2023-04-18T03:26:56.988Z,67.94
2023-04-18T03:27:56.967Z,67.40
2023-04-18T03:28:56.974Z,67.24
2023-04-18T03:29:56.961Z,67.02
2023-04-18T03:30:56.976Z,66.54
2023-04-18T03:31:56.953Z,65.15
2023-04-18T03:32:57.012Z,65.61
2023-04-18T03:33:56.913Z,65.61
2023-04-18T03:34:56.889Z,65.51
2023-04-18T03:35:56.880Z,65.51
2023-04-18T03:36:56.863Z,65.36
2023-04-18T03:37:56.900Z,65.56
2023-04-18T03:38:56.854Z,65.30
2023-04-18T03:39:56.815Z,64.70
2023-04-18T03:40:56.823Z,64.80
2023-04-18T03:41:56.827Z,64.70
2023-04-18T03:42:56.854Z,64.65
2023-04-18T03:43:56.753Z,64.01
2023-04-18T03:44:56.843Z,64.16
2023-04-18T03:45:56.814Z,63.82
2023-04-18T03:46:56.752Z,63.58
2023-04-18T03:47:56.793Z,63.34
2023-04-18T03:48:56.748Z,63.24
2023-04-18T03:49:56.726Z,62.67
2023-04-18T03:50:56.721Z,62.67
2023-04-18T03:51:56.684Z,62.49
2023-04-18T03:52:56.653Z,62.44
2023-04-18T03:53:56.645Z,62.30
2023-04-18T03:54:56.640Z,62.12
2023-04-18T03:55:56.632Z,61.89
2023-04-18T03:56:56.620Z,61.75
2023-04-18T03:57:56.591Z,61.44
2023-04-18T03:58:56.577Z,61.48
2023-04-18T03:59:56.598Z,61.08
2023-04-18T04:00:56.586Z,60.86
2023-04-18T04:01:56.640Z,60.95
2023-04-18T04:02:56.897Z,61.08
2023-04-18T04:03:56.605Z,60.99
2023-04-18T04:04:56.553Z,61.04
2023-04-18T04:05:56.508Z,60.99
2023-04-18T04:06:56.480Z,61.21
2023-04-18T04:07:56.557Z,60.86
2023-04-18T04:08:56.465Z,61.12
2023-04-18T04:09:56.436Z,61.12
2023-04-18T04:10:56.435Z,61.44
2023-04-18T04:11:56.452Z,61.48
2023-04-18T04:12:56.438Z,61.57
2023-04-18T04:13:56.406Z,61.85
2023-04-18T04:14:56.370Z,61.89
2023-04-18T04:15:56.497Z,62.12
2023-04-18T04:16:56.433Z,62.26
2023-04-18T04:17:56.368Z,62.58
2023-04-18T04:18:56.342Z,63.10
2023-04-18T04:19:56.323Z,63.53
2023-04-18T04:20:56.308Z,63.77
2023-04-18T04:21:56.303Z,63.82
2023-04-18T04:22:56.325Z,64.26
2023-04-18T04:23:56.268Z,64.35
2023-04-18T04:24:56.340Z,64.90
2023-04-18T04:25:56.299Z,65.10
2023-04-18T04:26:56.236Z,65.56
2023-04-18T04:27:56.275Z,65.51
2023-04-18T04:28:56.205Z,65.66
2023-04-18T04:29:56.174Z,65.92
2023-04-18T04:30:56.217Z,66.02
2023-04-18T04:31:56.198Z,66.02
2023-04-18T04:32:56.202Z,66.44
2023-04-18T04:33:56.144Z,66.70
2023-04-18T04:34:56.128Z,66.86
2023-04-18T04:35:56.128Z,66.76
2023-04-18T04:36:56.093Z,66.13
2023-04-18T04:37:56.084Z,66.86
2023-04-18T04:38:56.106Z,66.81
2023-04-18T04:39:56.109Z,66.60
2023-04-18T04:40:56.036Z,67.13
2023-04-18T04:41:56.124Z,67.40
2023-04-18T04:42:56.007Z,67.29
2023-04-18T04:43:56.014Z,67.83
2023-04-18T04:44:56.045Z,67.83
2023-04-18T04:45:56.110Z,68.05
2023-04-18T04:46:56.004Z,68.72
2023-04-18T04:47:55.979Z,69.29
2023-04-18T04:48:55.956Z,69.52
2023-04-18T04:49:56.003Z,70.21
2023-04-18T04:50:55.945Z,69.86
2023-04-18T04:51:55.944Z,70.63
2023-04-18T04:52:55.902Z,70.75
2023-04-18T04:53:55.922Z,70.98
2023-04-18T04:54:55.915Z,71.35
2023-04-18T04:55:55.887Z,72.08
2023-04-18T04:56:55.860Z,72.45
2023-04-18T04:57:55.829Z,72.96
2023-04-18T04:58:55.832Z,72.96
2023-04-18T04:59:55.810Z,73.46
2023-04-18T05:00:55.876Z,73.59
2023-04-18T05:01:55.810Z,73.66
2023-04-18T05:02:55.910Z,73.92
2023-04-18T05:03:55.966Z,74.05
2023-04-18T05:04:55.747Z,73.53
2023-04-18T05:05:55.725Z,74.44
2023-04-18T05:06:55.721Z,74.51
2023-04-18T05:07:55.725Z,74.57
2023-04-18T05:08:55.706Z,75.11
2023-04-18T05:09:55.680Z,75.11
2023-04-18T05:10:55.661Z,75.24
2023-04-18T05:11:55.706Z,72.51
2023-04-18T05:12:55.683Z,73.53
2023-04-18T05:13:55.652Z,74.31
2023-04-18T05:14:55.630Z,74.57
2023-04-18T05:15:55.660Z,74.90
2023-04-18T05:16:55.689Z,75.58
2023-04-18T05:17:55.575Z,75.71
2023-04-18T05:18:55.578Z,76.20
2023-04-18T05:19:55.634Z,76.61
2023-04-18T05:20:55.534Z,77.60
2023-04-18T05:21:55.581Z,78.54
2023-04-18T05:22:55.521Z,78.84
2023-04-18T05:23:55.500Z,79.29
2023-04-18T05:24:55.549Z,79.14
2023-04-18T05:25:55.514Z,79.14
2023-04-18T05:26:55.477Z,79.36
2023-04-18T05:27:55.444Z,80.27
2023-04-18T05:28:55.477Z,80.73
2023-04-18T05:29:55.454Z,81.51
2023-04-18T05:30:55.534Z,82.31
2023-04-18T05:31:55.431Z,83.21
2023-04-18T05:32:55.474Z,82.88
2023-04-18T05:33:55.413Z,83.96
2023-04-18T05:34:55.385Z,84.21
2023-04-18T05:35:55.392Z,84.89
2023-04-18T05:36:55.349Z,86.37
2023-04-18T05:37:55.344Z,87.91
2023-04-18T05:38:55.329Z,88.84
2023-04-18T05:39:56.039Z,89.98
2023-04-18T05:40:55.289Z,91.25
2023-04-18T05:41:55.272Z,93.07
2023-04-18T05:42:55.276Z,94.96
2023-04-18T05:44:16.750Z,93.71
2023-04-18T05:44:55.273Z,94.40
2023-04-18T05:45:57.754Z,94.77
2023-04-18T05:46:55.207Z,95.04
2023-04-18T05:47:55.452Z,95.31
2023-04-18T05:48:55.221Z,96.85
2023-04-18T05:49:55.208Z,97.97
2023-04-18T05:50:55.158Z,98.15
2023-04-18T05:51:55.179Z,98.32
2023-04-18T05:52:55.132Z,98.32
2023-04-18T05:53:55.116Z,97.63
2023-04-18T05:54:55.101Z,97.86
2023-04-18T05:55:55.113Z,99.01
2023-04-18T05:56:55.123Z,100.61
2023-04-18T05:57:55.057Z,99.96
2023-04-18T05:58:55.068Z,99.54
2023-04-18T05:59:55.184Z,99.78
2023-04-18T06:00:55.141Z,100.92
2023-04-18T06:01:55.096Z,101.34
2023-04-18T06:02:55.266Z,101.28
2023-04-18T06:03:55.230Z,101.40
2023-04-18T06:04:55.403Z,102.14
2023-04-18T06:05:55.055Z,102.14
2023-04-18T06:06:54.970Z,102.02
2023-04-18T06:07:54.993Z,102.14
2023-04-18T06:08:54.940Z,102.02
2023-04-18T06:09:54.961Z,101.77
2023-04-18T06:10:54.960Z,101.59
2023-04-18T06:11:54.900Z,101.89
2023-04-18T06:12:54.943Z,101.65
2023-04-18T06:13:54.889Z,100.73
2023-04-18T06:14:54.871Z,100.43
2023-04-18T06:15:54.959Z,100.13
2023-04-18T06:16:54.857Z,100.19
2023-04-18T06:17:54.880Z,99.66
2023-04-18T06:18:55.008Z,100.67
2023-04-18T06:19:55.519Z,101.46
2023-04-18T06:20:54.824Z,101.10
2023-04-18T06:21:54.765Z,99.90
2023-04-18T06:22:54.822Z,97.75
2023-04-18T06:23:55.127Z,97.75
2023-04-18T06:24:54.737Z,97.46
2023-04-18T06:25:54.755Z,96.85
2023-04-18T06:26:54.756Z,95.96
2023-04-18T06:27:54.684Z,95.63
2023-04-18T06:28:54.728Z,95.96
2023-04-18T06:29:54.696Z,95.36
2023-04-18T06:30:54.740Z,96.40
2023-04-18T06:31:54.696Z,96.18
2023-04-18T06:32:54.689Z,96.18
2023-04-18T06:33:54.617Z,95.69
2023-04-18T06:34:54.602Z,95.63
2023-04-18T06:35:54.585Z,94.82
2023-04-18T06:36:54.597Z,93.66
2023-04-18T06:37:54.565Z,94.85
2023-04-18T06:38:54.539Z,94.96
2023-04-18T06:39:56.729Z,93.51
2023-04-18T06:40:54.528Z,94.29
2023-04-18T06:41:54.523Z,94.50
2023-04-18T06:42:54.540Z,95.20
2023-04-18T06:44:03.271Z,95.96
2023-04-18T06:44:54.528Z,97.07
2023-04-18T06:45:54.497Z,98.09
2023-04-18T06:46:54.457Z,98.49
2023-04-18T06:47:54.457Z,96.51
2023-04-18T06:48:54.443Z,96.35
2023-04-18T06:49:54.409Z,95.69
2023-04-18T06:50:54.401Z,96.46
2023-04-18T06:51:54.404Z,96.07
2023-04-18T06:52:54.380Z,95.80
2023-04-18T06:53:54.356Z,96.07
2023-04-18T06:54:54.389Z,95.80
2023-04-18T06:55:54.337Z,95.20
2023-04-18T06:56:54.344Z,96.02
2023-04-18T06:57:54.307Z,96.02
2023-04-18T06:58:54.297Z,97.46
2023-04-18T06:59:54.285Z,98.49
2023-04-18T07:00:54.334Z,99.13
2023-04-18T07:01:54.293Z,99.19
2023-04-18T07:02:54.319Z,100.19
2023-04-18T07:03:54.354Z,102.45
2023-04-18T07:04:54.225Z,104.29
2023-04-18T07:05:54.191Z,104.88
2023-04-18T07:06:54.217Z,106.81
2023-04-18T07:07:54.200Z,109.39
2023-04-18T07:08:54.521Z,113.06
2023-04-18T07:09:54.145Z,122.01
2023-04-18T07:10:54.132Z,131.97
2023-04-18T07:11:54.150Z,139.52
2023-04-18T07:12:54.179Z,145.31
2023-04-18T07:13:54.088Z,149.05
2023-04-18T07:14:54.078Z,149.71
2023-04-18T07:15:54.072Z,149.18
2023-04-18T07:16:54.097Z,150.38
2023-04-18T07:17:54.075Z,149.71
2023-04-18T07:18:54.061Z,150.92
2023-04-18T07:19:54.051Z,152.29
2023-04-18T07:20:54.005Z,152.15
2023-04-18T07:21:54.001Z,151.05
2023-04-18T07:22:53.996Z,149.44
2023-04-18T07:23:53.962Z,154.10
2023-04-18T07:24:54.002Z,159.66
2023-04-18T07:25:53.945Z,166.79
2023-04-18T07:26:55.144Z,166.96
2023-04-18T07:27:53.904Z,166.29
2023-04-18T07:28:53.945Z,167.79
2023-04-18T07:29:53.879Z,170.34
2023-04-18T07:30:53.946Z,170.34
2023-04-18T07:31:53.880Z,175.68
2023-04-18T07:32:53.917Z,177.72
2023-04-18T07:33:53.867Z,186.18
2023-04-18T07:34:53.839Z,193.26
2023-04-18T07:35:53.836Z,192.80
2023-04-18T07:36:53.821Z,194.85
2023-04-18T07:37:53.849Z,201.50
2023-04-18T07:38:53.788Z,206.67
2023-04-18T07:39:53.779Z,213.20
2023-04-18T07:40:53.764Z,220.89
2023-04-18T07:41:53.757Z,221.18
2023-04-18T07:42:53.765Z,218.26
2023-04-18T07:43:53.791Z,217.69
2023-04-18T07:44:53.711Z,228.68
2023-04-18T07:45:53.766Z,230.12
2023-04-18T07:46:53.677Z,227.58
2023-04-18T07:47:53.705Z,229.00
2023-04-18T07:48:53.721Z,225.41
2023-04-18T07:49:53.654Z,221.18
2023-04-18T07:50:53.611Z,220.15
2023-04-18T07:51:53.611Z,223.73
2023-04-18T07:52:53.605Z,219.28
2023-04-18T07:53:53.608Z,216.27
2023-04-18T07:54:53.565Z,213.61
2023-04-18T07:55:53.547Z,226.02
2023-04-18T07:56:53.577Z,243.15
2023-04-18T07:57:53.540Z,257.55
2023-04-18T07:58:53.544Z,275.35
2023-04-18T07:59:53.500Z,291.88
2023-04-18T08:00:53.487Z,307.07
2023-04-18T08:01:53.502Z,322.97
2023-04-18T08:02:53.628Z,331.72
2023-04-18T08:03:53.594Z,342.72
2023-04-18T08:04:53.778Z,346.68
2023-04-18T08:05:53.464Z,349.24
2023-04-18T08:06:53.415Z,347.04
2023-04-18T08:07:53.404Z,344.87
2023-04-18T08:08:53.383Z,342.37
2023-04-18T08:09:53.395Z,345.95
2023-04-18T08:10:53.377Z,344.87
2023-04-18T08:11:53.353Z,353.72
2023-04-18T08:12:53.447Z,350.35
2023-04-18T08:13:53.334Z,347.04
2023-04-18T08:14:53.405Z,349.98
2023-04-18T08:15:53.348Z,350.72
2023-04-18T08:16:53.332Z,354.86
2023-04-18T08:17:53.303Z,349.61
2023-04-18T08:18:53.266Z,336.10
2023-04-18T08:19:53.296Z,339.21
2023-04-18T08:20:53.246Z,344.87
2023-04-18T08:21:53.223Z,349.98
2023-04-18T08:23:06.312Z,346.31
2023-04-18T08:23:53.212Z,337.47
2023-04-18T08:25:53.175Z,359.89
2023-04-18T08:26:53.148Z,383.03
2023-04-18T08:27:53.255Z,391.05
2023-04-18T08:28:53.145Z,390.37
2023-04-18T08:29:53.115Z,383.90
2023-04-18T08:30:53.108Z,378.28
2023-04-18T08:31:53.168Z,365.86
2023-04-18T08:32:53.178Z,354.48
2023-04-18T08:33:53.133Z,345.23
2023-04-18T08:34:53.083Z,347.04
2023-04-18T08:35:53.040Z,344.87
2023-04-18T08:36:53.064Z,345.59
2023-04-18T08:37:53.047Z,344.15
2023-04-18T08:38:53.010Z,348.87
2023-04-18T08:39:53.056Z,353.35
2023-04-18T08:40:52.986Z,334.74
2023-04-18T08:41:52.965Z,334.74
2023-04-18T08:42:52.969Z,330.39
2023-04-18T08:43:53.843Z,316.47
2023-04-18T08:44:52.931Z,306.21
2023-04-18T08:45:53.036Z,298.20
2023-04-18T08:46:52.916Z,298.20
2023-04-18T08:47:53.072Z,295.54
2023-04-18T08:48:52.881Z,285.83
2023-04-18T08:49:52.875Z,285.33
2023-04-18T08:50:52.879Z,279.07
2023-04-18T08:51:52.857Z,280.49
2023-04-18T08:52:52.842Z,285.83
2023-04-18T08:53:52.832Z,286.07
2023-04-18T08:54:52.814Z,287.32
2023-04-18T08:55:52.829Z,291.63
2023-04-18T08:56:52.772Z,299.01
2023-04-18T08:57:52.788Z,309.37
2023-04-18T08:58:52.765Z,307.92
2023-04-18T08:59:52.735Z,293.96
2023-04-18T09:00:52.795Z,305.93
2023-04-18T09:01:52.884Z,318.30
2023-04-18T09:02:52.785Z,314.67
2023-04-18T09:03:52.816Z,307.07
2023-04-18T09:04:52.774Z,308.79
2023-04-18T09:05:52.672Z,310.24
2023-04-18T09:06:52.740Z,327.12
2023-04-18T09:07:52.665Z,330.06
2023-04-18T09:08:52.642Z,323.92
2023-04-18T09:09:52.672Z,319.23
2023-04-18T09:10:52.687Z,329.40
2023-04-18T09:11:52.575Z,330.72
2023-04-18T09:12:52.625Z,332.72
2023-04-18T09:13:52.619Z,328.75
2023-04-18T09:14:52.539Z,333.39
2023-04-18T09:15:52.562Z,334.40
2023-04-18T09:16:52.628Z,344.51
2023-04-18T09:17:52.654Z,342.72
2023-04-18T09:18:52.521Z,343.08
2023-04-18T09:19:52.505Z,336.44
2023-04-18T09:20:52.502Z,341.66
2023-04-18T09:21:52.473Z,349.98
2023-04-18T09:22:52.460Z,345.95
2023-04-18T09:23:52.455Z,364.25
2023-04-18T09:24:52.494Z,378.28
2023-04-18T09:25:52.417Z,412.16
2023-04-18T09:26:52.417Z,432.04
2023-04-18T09:27:52.387Z,431.77
2023-04-18T09:28:53.834Z,420.94
2023-04-18T09:29:52.358Z,412.42
2023-04-18T09:30:52.430Z,418.85
2023-04-18T09:31:52.327Z,440.83
2023-04-18T09:32:52.410Z,438.82
2023-04-18T09:33:52.307Z,430.38
2023-04-18T09:34:52.272Z,427.37
2023-04-18T09:35:52.288Z,416.51
2023-04-18T09:36:52.287Z,425.21
2023-04-18T09:37:52.284Z,427.37
2023-04-18T09:38:55.374Z,462.69
2023-04-18T09:39:52.244Z,477.83
2023-04-18T09:40:52.234Z,490.39
2023-04-18T09:41:52.224Z,525.69
2023-04-18T09:42:52.208Z,541.36
2023-04-18T09:43:52.210Z,597.71
2023-04-18T09:44:52.155Z,651.63
2023-04-18T09:45:52.175Z,659.95
2023-04-18T09:46:52.141Z,694.76
2023-04-18T09:47:52.168Z,753.92
2023-04-18T09:48:52.122Z,789.32
2023-04-18T09:49:52.132Z,793.51
2023-04-18T09:50:52.105Z,782.89
2023-04-18T09:51:52.135Z,753.50
2023-04-18T09:52:52.122Z,739.08
2023-04-18T09:53:52.056Z,735.85
2023-04-18T09:54:52.036Z,723.17
2023-04-18T09:55:52.026Z,701.28
2023-04-18T09:56:51.985Z,741.53
2023-04-18T09:57:52.013Z,786.09
2023-04-18T09:58:52.013Z,822.13
2023-04-18T09:59:51.960Z,854.51
2023-04-18T10:00:51.986Z,875.65
2023-04-18T10:01:51.974Z,862.18
2023-04-18T10:02:52.004Z,831.27
2023-04-18T10:03:52.032Z,822.13
2023-04-18T10:04:52.060Z,813.18
2023-04-18T10:05:51.933Z,830.25
2023-04-18T10:06:51.931Z,854.51
2023-04-18T10:07:51.855Z,868.86
2023-04-18T10:08:51.882Z,894.28
2023-04-18T10:09:51.830Z,893.69
2023-04-18T10:10:51.871Z,858.88
2023-04-18T10:11:51.801Z,828.20
2023-04-18T10:12:51.861Z,855.60
2023-04-18T10:13:51.810Z,877.36
2023-04-18T10:14:51.862Z,879.09
2023-04-18T10:15:51.833Z,884.87
2023-04-18T10:16:51.761Z,890.73
2023-04-18T10:18:03.459Z,855.60
2023-04-18T10:18:51.802Z,832.82
2023-04-18T10:19:51.748Z,725.52
2023-04-18T10:20:51.690Z,707.93
2023-04-18T10:21:51.691Z,692.61
2023-04-18T10:22:51.721Z,738.27
2023-04-18T10:23:51.665Z,760.32
2023-04-18T10:24:51.712Z,764.20
2023-04-18T10:25:51.706Z,753.08
2023-04-18T10:26:51.645Z,794.45
2023-04-18T10:27:51.609Z,811.71
2023-04-18T10:28:51.608Z,796.80
2023-04-18T10:29:51.651Z,792.11
2023-04-18T10:30:51.604Z,816.14
2023-04-18T10:31:51.709Z,829.73
2023-04-18T10:32:51.613Z,903.90
2023-04-18T10:34:03.313Z,1011.28
2023-04-18T10:34:51.594Z,1074.28
2023-04-18T10:35:51.561Z,1076.86
2023-04-18T10:36:51.506Z,1110.65
2023-04-18T10:37:52.439Z,1106.08
2023-04-18T10:38:51.483Z,1053.25
2023-04-18T10:39:51.513Z,1048.32
2023-04-18T10:40:51.446Z,1089.07
2023-04-18T10:41:51.741Z,1101.56
2023-04-18T10:42:51.431Z,1051.60
2023-04-18T10:43:51.487Z,1029.86
2023-04-18T10:44:51.408Z,981.75
2023-04-18T10:45:51.409Z,1000.74
2023-04-18T10:46:51.494Z,1003.73
2023-04-18T10:47:51.481Z,1050.78
2023-04-18T10:48:51.368Z,1027.50
2023-04-18T10:49:51.394Z,947.18
2023-04-18T10:50:51.352Z,928.87
2023-04-18T10:51:51.320Z,960.71
2023-04-18T10:52:51.315Z,967.62
2023-04-18T10:53:51.316Z,948.52
2023-04-18T10:54:51.293Z,925.03
2023-04-18T10:55:51.311Z,955.26
2023-04-18T10:56:51.280Z,919.97
2023-04-18T10:57:51.257Z,874.51
2023-04-18T10:58:51.535Z,805.39
2023-04-18T10:59:51.240Z,823.64
2023-04-18T11:00:51.267Z,893.09
2023-04-18T11:01:51.207Z,930.79
2023-04-18T11:02:51.394Z,939.24
2023-04-18T11:03:51.237Z,937.93
2023-04-18T11:04:51.158Z,937.93
2023-04-18T11:05:51.172Z,925.67
2023-04-18T11:06:51.152Z,947.85
2023-04-18T11:07:51.169Z,975.34
2023-04-18T11:08:51.133Z,988.24
2023-04-18T11:09:51.103Z,1007.49
2023-04-18T11:10:51.076Z,1034.61
2023-04-18T11:11:51.101Z,1074.28
2023-04-18T11:12:51.099Z,1089.95
2023-04-18T11:13:51.065Z,1095.28
2023-04-18T11:14:51.048Z,1111.57
2023-04-18T11:15:51.015Z,1166.52
2023-04-18T11:16:51.122Z,1120.83
2023-04-18T11:17:51.190Z,1132.15
2023-04-18T11:18:51.101Z,1105.18
2023-04-18T11:19:50.994Z,1129.30
2023-04-18T11:20:51.007Z,1183.98
2023-04-18T11:21:50.991Z,1209.53
2023-04-18T11:22:50.949Z,1212.80
2023-04-18T11:23:50.944Z,1257.01
2023-04-18T11:24:50.960Z,1277.30
2023-04-18T11:25:50.956Z,1260.54
2023-04-18T11:26:50.904Z,1237.35
2023-04-18T11:27:50.869Z,1171.60
2023-04-18T11:28:50.902Z,1169.56
2023-04-18T11:29:50.901Z,1197.68
2023-04-18T11:30:50.900Z,1221.62
2023-04-18T11:31:50.863Z,1208.44
2023-04-18T11:32:50.822Z,1218.30
2023-04-18T11:33:50.806Z,1273.67
2023-04-18T11:34:50.797Z,1300.77
2023-04-18T11:35:50.778Z,1295.76
2023-04-18T11:36:50.754Z,1302.03
2023-04-18T11:37:50.761Z,1303.29
2023-04-18T11:38:50.727Z,1284.62
2023-04-18T11:39:50.789Z,1257.01
2023-04-18T11:40:50.983Z,1273.67
2023-04-18T11:41:50.722Z,1331.68
2023-04-18T11:42:50.712Z,1353.12
2023-04-18T11:43:50.680Z,1389.46
2023-04-18T11:44:50.672Z,1375.26
2023-04-18T11:45:50.782Z,1353.12
2023-04-18T11:46:50.653Z,1365.48
2023-04-18T11:47:50.693Z,1383.74
2023-04-18T11:48:50.677Z,1398.13
2023-04-18T11:49:50.659Z,1398.13
2023-04-18T11:50:50.675Z,1440.04
2023-04-18T11:51:50.564Z,1476.40
2023-04-18T11:52:50.578Z,1509.54
2023-04-18T11:53:50.608Z,1599.29
2023-04-18T11:54:50.541Z,1659.47
2023-04-18T11:55:50.515Z,1710.11
2023-04-18T11:56:50.523Z,1659.47
2023-04-18T11:57:50.496Z,1567.60
2023-04-18T11:58:50.519Z,1612.71
2023-04-18T11:59:50.504Z,1659.47
2023-04-18T12:00:50.464Z,1717.75
2023-04-18T12:01:50.445Z,1729.90
2023-04-18T12:02:50.611Z,1704.69
2023-04-18T12:03:50.818Z,1754.73
2023-04-18T12:04:50.737Z,1829.93
2023-04-18T12:05:50.616Z,1812.67
2023-04-18T12:06:51.983Z,1857.73
2023-04-18T12:07:50.370Z,1928.31
2023-04-18T12:08:51.232Z,1925.55
2023-04-18T12:09:50.368Z,1914.59
2023-04-18T12:10:50.361Z,1859.02
2023-04-18T12:11:50.318Z,1841.20
2023-04-18T12:12:50.344Z,1847.53
2023-04-18T12:13:50.328Z,1775.58
2023-04-18T12:14:50.298Z,1742.23
2023-04-18T12:15:50.302Z,1732.13
2023-04-18T12:16:50.314Z,1710.11
2023-04-18T12:17:50.297Z,1636.25
2023-04-18T12:18:50.238Z,1605.97
2023-04-18T12:19:50.239Z,1636.25
2023-04-18T12:20:50.574Z,1618.53
2023-04-18T12:21:50.230Z,1588.90
2023-04-18T12:22:50.224Z,1593.60
2023-04-18T12:23:50.181Z,1604.05
2023-04-18T12:24:50.181Z,1637.25
2023-04-18T12:25:50.145Z,1622.44
2023-04-18T12:26:50.140Z,1646.27
2023-04-18T12:27:50.137Z,1688.64
2023-04-18T12:28:50.174Z,1684.41
2023-04-18T12:29:50.148Z,1632.28
2023-04-18T12:30:50.078Z,1651.32
2023-04-18T12:31:50.131Z,1702.53
2023-04-18T12:32:50.174Z,1716.66
2023-04-18T12:33:50.069Z,1746.75
2023-04-18T12:34:50.076Z,1815.11
2023-04-18T12:35:50.018Z,1866.76
2023-04-18T12:36:49.996Z,1852.62
2023-04-18T12:37:50.003Z,1839.94
2023-04-18T12:38:50.003Z,1842.46